Time;durP1;ratioP1;P1;durP2;ratioP2;P2;SDS_P1;SDS_P2;PMS_P1;PMS_P2;Temp;Humidity;BMP_temperature;BMP_pressure;BME280_temperature;BME280_humidity;BME280_pressure;Samples;Min_cycle;Max_cycle;Signal;HPM_P1;HPM_P2
2021/10/29 06:00:36;;;;;;;15.18;1.75;;;12.90;99.90;;;;;;6140584;23;20329;-81
2021/10/29 06:03:05;;;;;;;7.30;1.67;;;12.90;99.90;;;;;;6240877;23;20078;-82
2021/10/29 06:05:33;;;;;;;11.68;1.80;;;12.90;99.90;;;;;;6242491;23;20020;-81
2021/10/29 06:08:00;;;;;;;13.15;2.00;;;12.90;99.90;;;;;;6242958;23;20074;-81
2021/10/29 06:10:27;;;;;;;12.60;1.58;;;12.90;99.90;;;;;;6242302;23;20020;-82
2021/10/29 06:12:55;;;;;;;15.10;1.65;;;12.90;99.90;;;;;;6243315;23;20362;-81
2021/10/29 06:15:23;;;;;;;9.98;1.60;;;12.90;99.90;;;;;;6242328;23;20015;-81
2021/10/29 06:17:51;;;;;;;12.67;1.50;;;12.90;99.90;;;;;;6242950;23;20078;-81
2021/10/29 06:20:19;;;;;;;10.45;1.50;;;12.90;99.90;;;;;;6242766;23;20343;-82
2021/10/29 06:22:48;;;;;;;10.13;1.60;;;12.90;99.90;;;;;;6243056;23;20015;-83
2021/10/29 06:25:19;;;;;;;7.43;1.05;;;12.90;99.90;;;;;;6242060;23;20016;-83
2021/10/29 06:30:39;;;;;;;13.38;1.58;;;12.80;99.90;;;;;;6242971;23;20335;-82
2021/10/29 06:33:11;;;;;;;12.63;1.55;;;12.80;99.90;;;;;;6242612;23;20043;-83
2021/10/29 06:35:42;;;;;;;11.48;2.03;;;12.80;99.90;;;;;;6243170;23;20074;-83
2021/10/29 06:38:11;;;;;;;17.10;2.20;;;12.80;99.90;;;;;;6242382;23;20024;-83
2021/10/29 06:40:42;;;;;;;10.18;1.45;;;12.80;99.90;;;;;;6215612;23;20532;-82
2021/10/29 06:43:20;;;;;;;11.05;1.80;;;12.80;99.90;;;;;;6242250;23;20024;-83
2021/10/29 07:03:00;;;;;;;15.88;2.30;;;12.70;99.90;;;;;;6170009;23;20028;-81
2021/10/29 07:40:47;;;;;;;14.60;2.15;;;12.40;99.90;;;;;;6236115;23;20095;-82
2021/10/29 07:43:36;;;;;;;18.02;2.95;;;12.40;99.90;;;;;;6234853;23;20422;-82
2021/10/29 07:46:04;;;;;;;14.95;2.80;;;12.40;99.90;;;;;;6236629;23;20032;-83
2021/10/29 07:48:33;;;;;;;17.17;2.78;;;12.50;99.90;;;;;;6209525;23;20055;-82
2021/10/29 07:51:02;;;;;;;20.48;2.85;;;12.50;99.90;;;;;;6236102;23;20102;-84
2021/10/29 07:53:29;;;;;;;19.67;2.42;;;12.50;99.90;;;;;;6210327;23;20016;-83
2021/10/29 07:55:58;;;;;;;20.75;3.03;;;12.50;99.90;;;;;;6238039;23;20012;-83
2021/10/29 07:58:26;;;;;;;16.45;3.20;;;12.50;99.90;;;;;;6238263;23;20016;-83
2021/10/29 08:00:54;;;;;;;14.23;2.95;;;12.50;99.90;;;;;;6232243;23;20020;-84
2021/10/29 08:03:21;;;;;;;23.98;3.75;;;12.50;99.90;;;;;;6207650;23;20079;-83
2021/10/29 08:05:48;;;;;;;17.80;3.08;;;12.50;99.90;;;;;;6181925;23;20025;-84
2021/10/29 08:08:19;;;;;;;17.80;2.88;;;12.50;99.90;;;;;;6180960;23;20042;-84
2021/10/29 08:10:48;;;;;;;20.80;2.83;;;12.50;99.90;;;;;;6208616;23;20406;-85
2021/10/29 08:13:16;;;;;;;14.38;2.47;;;12.50;99.90;;;;;;6207269;23;20017;-84
2021/10/29 08:15:43;;;;;;;14.65;2.30;;;12.60;99.90;;;;;;6208967;23;20017;-85
2021/10/29 08:18:11;;;;;;;21.35;2.35;;;12.60;99.90;;;;;;6167327;23;20032;-85
2021/10/29 08:20:39;;;;;;;13.30;2.25;;;12.60;99.90;;;;;;6219017;23;20048;-86
2021/10/29 08:23:18;;;;;;;14.27;2.85;;;12.60;99.90;;;;;;6168599;23;20024;-85
2021/10/29 08:25:45;;;;;;;20.95;3.28;;;12.60;99.90;;;;;;6201338;23;20229;-84
2021/10/29 08:28:23;;;;;;;15.98;2.90;;;12.60;99.90;;;;;;6192002;23;20063;-86
2021/10/29 08:30:55;;;;;;;18.88;2.90;;;12.70;99.90;;;;;;6171149;23;20019;-86
2021/10/29 08:33:33;;;;;;;11.52;1.83;;;12.70;99.90;;;;;;6110084;23;20025;-85
2021/10/29 08:36:25;;;;;;;15.32;2.95;;;12.80;99.90;;;;;;6100349;23;20581;-84
2021/10/29 08:38:57;;;;;;;18.80;2.53;;;12.90;99.90;;;;;;6174177;23;20035;-84
2021/10/29 08:41:40;;;;;;;17.23;2.83;;;13.00;99.90;;;;;;6173123;23;20048;-84
2021/10/29 08:44:19;;;;;;;17.65;2.42;;;13.10;99.90;;;;;;6146241;23;20526;-88
2021/10/29 08:46:46;;;;;;;19.52;2.47;;;13.10;99.90;;;;;;6219529;23;20431;-83
2021/10/29 08:49:14;;;;;;;13.45;2.60;;;13.20;99.90;;;;;;6166952;23;20032;-83
2021/10/29 08:51:42;;;;;;;18.10;2.50;;;13.30;99.90;;;;;;6181275;23;20444;-83
2021/10/29 08:54:10;;;;;;;16.50;3.53;;;13.30;99.90;;;;;;6180085;23;20020;-83
2021/10/29 08:56:40;;;;;;;18.38;2.53;;;13.40;99.90;;;;;;6181056;23;20027;-84
2021/10/29 08:59:23;;;;;;;15.10;2.35;;;13.50;99.90;;;;;;6179111;23;20032;-84
2021/10/29 09:32:03;;;;;;;17.55;2.53;;;13.60;99.90;;;;;;6033017;23;20020;-83
2021/10/29 09:34:30;;;;;;;12.80;2.28;;;13.60;99.90;;;;;;6033283;23;20116;-85
2021/10/29 09:36:57;;;;;;;17.17;2.30;;;13.50;99.90;;;;;;6010409;23;20019;-84
2021/10/29 09:39:27;;;;;;;14.25;2.47;;;13.50;99.90;;;;;;6009203;23;20095;-84
2021/10/29 09:42:05;;;;;;;11.20;2.28;;;13.40;99.90;;;;;;6032999;23;20055;-84
2021/10/29 09:44:48;;;;;;;11.40;2.10;;;13.40;99.90;;;;;;6032346;23;20027;-81
2021/10/29 09:47:19;;;;;;;16.58;2.33;;;13.30;99.90;;;;;;6031291;23;20087;-82
2021/10/29 09:50:05;;;;;;;18.77;2.25;;;13.30;99.90;;;;;;6082355;23;20468;-83
2021/10/29 09:52:49;;;;;;;14.45;2.20;;;13.30;99.90;;;;;;6142531;23;20061;-84
2021/10/29 09:55:23;;;;;;;16.23;2.55;;;13.30;99.90;;;;;;6117401;23;20030;-83
2021/10/29 09:57:50;;;;;;;16.35;2.53;;;13.30;99.90;;;;;;6177453;23;20397;-84
2021/10/29 10:00:17;;;;;;;16.90;2.65;;;13.40;99.90;;;;;;6211025;23;20028;-85
2021/10/29 10:02:45;;;;;;;16.48;2.55;;;13.50;99.90;;;;;;6240454;23;20087;-84
2021/10/29 10:05:14;;;;;;;20.83;2.90;;;13.50;99.90;;;;;;6240785;23;20020;-86
2021/10/29 10:07:44;;;;;;;;;;;13.50;99.90;;;;;;6241201;23;20095;-85
2021/10/29 10:10:11;;;;;;;19.88;2.92;;;13.60;99.90;;;;;;6240850;23;19973;-84
2021/10/29 10:12:45;;;;;;;15.40;2.53;;;13.70;99.90;;;;;;6240612;23;20016;-84
2021/10/29 10:15:13;;;;;;;26.90;3.97;;;13.80;99.90;;;;;;6212642;23;20251;-83
2021/10/29 10:17:41;;;;;;;13.35;2.10;;;14.00;99.90;;;;;;6240350;23;20082;-86
2021/10/29 10:20:09;;;;;;;13.90;2.22;;;14.20;99.90;;;;;;6241606;23;20024;-85
2021/10/29 10:22:40;;;;;;;10.50;2.00;;;14.40;99.90;;;;;;6242283;23;20043;-83
2021/10/29 10:25:18;;;;;;;11.85;1.90;;;14.50;99.90;;;;;;6239866;23;20020;-87
2021/10/29 10:31:06;;;;;;;15.07;1.75;;;14.70;99.90;;;;;;6241902;23;20070;-82
2021/10/29 10:47:35;;;;;;;14.45;2.05;;;15.00;99.90;;;;;;6241740;23;20070;-87
2021/10/29 10:50:14;;;;;;;11.93;2.05;;;15.00;99.90;;;;;;6242706;23;20023;-86
2021/10/29 10:53:04;;;;;;;12.00;2.00;;;15.10;99.90;;;;;;6215914;23;20008;-86
2021/10/29 10:55:46;;;;;;;13.00;1.88;;;15.10;99.90;;;;;;6241382;23;20056;-86
2021/10/29 11:01:02;;;;;;;12.10;1.65;;;15.10;99.90;;;;;;6241439;23;20020;-85
2021/10/29 11:04:03;;;;;;;11.70;1.98;;;15.10;99.90;;;;;;6214936;23;20024;-85
2021/10/29 11:07:27;;;;;;;10.07;1.70;;;15.10;99.90;;;;;;6215087;23;20458;-87
2021/10/29 11:12:40;;;;;;;14.95;1.58;;;15.20;99.90;;;;;;6242082;23;20032;-86
2021/10/29 11:15:26;;;;;;;15.77;1.90;;;15.20;99.90;;;;;;6241432;23;20091;-84
2021/10/29 11:17:57;;;;;;;10.32;2.13;;;15.20;99.90;;;;;;6242192;23;20074;-86
2021/10/29 11:20:41;;;;;;;13.65;2.22;;;15.20;99.90;;;;;;6241231;23;20024;-85
2021/10/29 11:23:20;;;;;;;9.27;1.65;;;15.10;99.90;;;;;;6241959;23;20024;-84
2021/10/29 11:26:04;;;;;;;6.22;1.17;;;15.00;99.90;;;;;;6242325;23;20024;-85
2021/10/29 11:28:49;;;;;;;12.32;1.48;;;14.70;99.90;;;;;;6242871;23;20476;-86
2021/10/29 11:31:26;;;;;;;7.68;1.80;;;14.60;99.90;;;;;;6216865;23;20024;-86
2021/10/29 11:33:56;;;;;;;12.30;2.35;;;14.40;99.90;;;;;;6238310;23;20351;-86
2021/10/29 11:36:26;;;;;;;13.32;2.25;;;14.40;99.90;;;;;;6244063;23;20066;-86
2021/10/29 11:38:54;;;;;;;9.38;1.73;;;14.40;99.90;;;;;;6218389;23;20016;-85
2021/10/29 11:41:27;;;;;;;13.65;2.45;;;14.30;99.90;;;;;;6243862;23;20099;-86
2021/10/29 11:44:00;;;;;;;15.55;2.20;;;14.30;99.90;;;;;;6244662;23;20528;-86
2021/10/29 11:46:29;;;;;;;16.10;2.20;;;14.30;99.90;;;;;;6243777;23;20520;-86
2021/10/29 11:49:02;;;;;;;10.30;1.88;;;14.30;99.90;;;;;;6244717;23;20044;-85
2021/10/29 11:51:30;;;;;;;9.68;1.65;;;14.30;99.90;;;;;;6243248;23;20028;-84
2021/10/29 12:07:33;;;;;;;7.03;1.90;;;14.40;99.90;;;;;;6243273;23;20070;-85
2021/10/29 12:10:02;;;;;;;10.50;1.77;;;14.50;99.90;;;;;;6244697;23;20016;-86
2021/10/29 12:12:30;;;;;;;6.85;1.33;;;14.50;99.90;;;;;;6243991;23;20066;-86
2021/10/29 12:15:10;;;;;;;9.27;1.80;;;14.50;99.90;;;;;;6244412;23;20020;-87
2021/10/29 12:17:57;;;;;;;8.50;1.48;;;14.60;99.90;;;;;;6245195;23;20016;-90
2021/10/29 12:20:31;;;;;;;16.58;1.70;;;14.60;99.90;;;;;;6244118;23;20016;-96
2021/10/29 12:23:13;;;;;;;7.65;1.60;;;14.70;99.90;;;;;;6244428;23;20016;-89
2021/10/29 12:28:12;;;;;;;10.40;2.40;;;14.90;99.90;;;;;;6244587;23;20339;-88
2021/10/29 12:30:47;;;;;;;13.18;2.00;;;15.00;99.90;;;;;;6243137;23;20418;-85
2021/10/29 12:53:46;;;;;;;7.85;1.38;;;15.50;99.90;;;;;;6207574;23;20024;-84
2021/10/29 13:02:01;;;;;;;13.93;2.35;;;15.50;99.90;;;;;;6204419;23;20483;-85
2021/10/29 13:04:42;;;;;;;10.27;1.90;;;15.60;99.90;;;;;;6207701;23;20020;-84
2021/10/29 13:07:11;;;;;;;11.23;2.00;;;15.70;99.90;;;;;;6182483;23;20025;-85
2021/10/29 13:09:39;;;;;;;5.72;1.50;;;15.80;99.90;;;;;;6184460;23;20017;-86
2021/10/29 13:12:24;;;;;;;9.63;1.77;;;15.90;99.90;;;;;;6202140;23;20028;-84
2021/10/29 13:15:01;;;;;;;7.78;1.27;;;16.00;99.90;;;;;;6203955;23;20024;-87
2021/10/29 13:17:33;;;;;;;10.13;1.63;;;16.00;99.90;;;;;;6204133;23;20021;-85
2021/10/29 14:35:17;;;;;;;12.00;2.47;;;15.70;99.90;;;;;;6090501;23;20034;-87
2021/10/29 14:40:56;;;;;;;7.95;1.50;;;15.70;99.90;;;;;;6092046;23;20089;-86
2021/10/29 14:43:27;;;;;;;10.82;1.77;;;15.60;99.90;;;;;;6091116;23;20029;-88
2021/10/29 14:48:38;;;;;;;10.15;1.52;;;15.60;99.90;;;;;;6091205;23;20033;-89
2021/10/29 15:18:27;;;;;;;14.15;1.48;;;15.40;99.90;;;;;;6143883;23;20017;-84
2021/10/29 15:26:53;;;;;;;10.77;1.83;;;15.40;99.90;;;;;;6143652;23;20024;-84
2021/10/29 15:29:48;;;;;;;11.30;1.50;;;15.40;99.90;;;;;;6143226;23;20021;-83
2021/10/29 15:51:54;;;;;;;9.00;2.47;;;15.30;99.90;;;;;;6055303;23;20033;-81
2021/10/29 15:54:21;;;;;;;11.68;1.70;;;15.30;99.90;;;;;;6055215;23;20082;-81
2021/10/29 15:56:52;;;;;;;9.73;2.08;;;15.30;99.90;;;;;;6055921;23;20027;-81
2021/10/29 16:02:01;;;;;;;10.32;1.85;;;15.20;99.90;;;;;;6056063;23;20088;-83
2021/10/29 16:18:26;;;;;;;10.35;1.60;;;14.90;99.90;;;;;;6150640;23;20048;-84
2021/10/29 16:20:53;;;;;;;12.70;1.67;;;15.00;99.90;;;;;;6151036;23;20495;-86
2021/10/29 16:23:26;;;;;;;12.27;1.90;;;15.00;99.90;;;;;;6197191;23;20083;-82
2021/10/29 16:26:07;;;;;;;8.70;1.83;;;15.00;99.90;;;;;;6243567;23;20020;-81
2021/10/29 16:28:43;;;;;;;5.60;1.38;;;15.10;99.90;;;;;;6242587;23;20099;-84
2021/10/29 16:31:14;;;;;;;7.43;1.23;;;15.10;99.90;;;;;;6242866;23;20020;-86
2021/10/29 16:33:41;;;;;;;6.25;1.33;;;15.00;99.90;;;;;;6218155;23;20056;-86
2021/10/29 16:36:08;;;;;;;5.60;1.30;;;14.90;99.90;;;;;;6243763;23;20479;-85
2021/10/29 16:38:35;;;;;;;6.32;1.20;;;14.80;99.90;;;;;;6218239;23;20015;-85
2021/10/29 16:41:02;;;;;;;9.02;2.00;;;14.70;99.90;;;;;;6243757;23;20020;-85
2021/10/29 16:43:31;;;;;;;8.25;1.58;;;14.60;99.90;;;;;;6243135;23;20032;-85
2021/10/29 16:45:58;;;;;;;6.32;1.50;;;14.60;99.90;;;;;;6242457;23;20351;-84
2021/10/29 16:48:25;;;;;;;10.57;1.85;;;14.50;99.90;;;;;;6216033;23;20086;-82
2021/10/29 16:50:53;;;;;;;10.20;1.92;;;14.40;99.90;;;;;;6240996;23;20035;-83
2021/10/29 16:53:22;;;;;;;7.05;2.10;;;14.30;99.90;;;;;;6237248;23;20403;-86
2021/10/29 16:55:49;;;;;;;;;;;14.20;99.90;;;;;;6223312;23;20012;-85
2021/10/29 16:58:16;;;;;;;9.50;2.05;;;14.10;99.90;;;;;;6209698;23;19923;-82
2021/10/29 17:01:00;;;;;;;5.93;1.63;;;14.00;99.90;;;;;;5075866;27;20464;-86
2021/10/29 17:03:27;;;;;;;14.25;2.47;;;13.90;99.90;;;;;;5048730;28;20049;-84
2021/10/29 17:05:55;;;;;;;13.43;5.00;;;13.80;99.90;;;;;;5050755;28;20056;-86
2021/10/29 17:08:24;;;;;;;8.85;2.40;;;13.70;99.90;;;;;;5044345;28;20083;-85
2021/10/29 17:10:53;;;;;;;10.45;1.70;;;13.60;99.90;;;;;;5051926;28;20037;-86
2021/10/29 17:13:34;;;;;;;8.55;2.13;;;13.50;99.90;;;;;;5053347;28;20080;-85
2021/10/29 17:16:15;;;;;;;9.18;2.22;;;13.50;99.90;;;;;;5033522;28;20125;-88
2021/10/29 17:18:51;;;;;;;7.70;2.05;;;13.40;99.90;;;;;;5039349;28;20810;-87
2021/10/29 17:21:20;;;;;;;15.27;2.13;;;13.30;99.90;;;;;;5059794;28;20600;-88
2021/10/29 17:23:49;;;;;;;11.90;2.30;;;13.30;99.90;;;;;;5048343;28;20282;-86
2021/10/29 17:26:16;;;;;;;10.25;3.03;;;13.20;99.90;;;;;;5049420;28;20051;-87
2021/10/29 17:28:53;;;;;;;12.00;2.78;;;13.10;99.90;;;;;;5033567;28;20517;-87
2021/10/29 17:31:20;;;;;;;12.07;3.38;;;13.10;99.90;;;;;;5041480;28;20049;-88
2021/10/29 17:33:48;;;;;;;11.30;2.72;;;13.00;99.90;;;;;;5068591;28;20053;-87
2021/10/29 17:36:17;;;;;;;11.85;2.50;;;12.90;99.90;;;;;;5047818;28;20048;-87
2021/10/29 17:38:44;;;;;;;11.23;2.78;;;12.90;99.90;;;;;;5060218;28;20044;-87
2021/10/29 17:41:12;;;;;;;11.05;2.70;;;12.80;99.90;;;;;;5039815;28;20126;-86
2021/10/29 17:43:39;;;;;;;12.68;2.35;;;12.80;99.90;;;;;;5046363;28;20048;-85
2021/10/29 17:46:14;;;;;;;16.23;2.20;;;12.70;99.90;;;;;;5042188;28;20055;-87
2021/10/29 17:48:41;;;;;;;10.57;2.47;;;12.70;99.90;;;;;;5048115;28;20498;-86
2021/10/29 17:51:08;;;;;;;11.75;1.83;;;12.60;99.90;;;;;;5040090;28;20041;-84
2021/10/29 17:53:35;;;;;;;9.38;2.60;;;12.60;99.90;;;;;;5050100;28;20040;-88
2021/10/29 17:56:04;;;;;;;13.90;2.53;;;12.60;99.90;;;;;;5041392;28;20056;-87
2021/10/29 17:58:32;;;;;;;16.70;2.40;;;12.60;99.90;;;;;;5038618;28;20075;-85
2021/10/29 18:01:00;;;;;;;11.10;2.58;;;12.50;99.90;;;;;;5047383;28;20053;-92
2021/10/29 18:03:28;;;;;;;10.60;2.60;;;12.50;99.90;;;;;;5051546;28;20041;-94
2021/10/29 18:05:55;;;;;;;11.18;2.75;;;12.40;99.90;;;;;;5067517;28;20593;-92
2021/10/29 18:08:26;;;;;;;14.15;2.92;;;12.50;99.90;;;;;;5041542;28;20052;-93
2021/10/29 18:10:53;;;;;;;10.35;2.83;;;12.40;99.90;;;;;;5038028;28;20104;-92
2021/10/29 18:13:21;;;;;;;13.98;3.13;;;12.40;99.90;;;;;;5020379;28;20056;-94
2021/10/29 18:15:49;;;;;;;11.57;2.50;;;12.40;99.90;;;;;;5047616;28;20062;-93
2021/10/29 18:18:17;;;;;;;11.90;3.00;;;12.40;99.90;;;;;;5028259;28;20057;-93
2021/10/29 18:20:44;;;;;;;10.50;3.15;;;12.30;99.90;;;;;;5022847;28;20042;-91
2021/10/29 18:23:11;;;;;;;14.02;3.17;;;12.30;99.90;;;;;;5030675;28;20049;-92
2021/10/29 18:25:38;;;;;;;11.35;2.30;;;12.30;99.90;;;;;;5015105;28;20068;-92
2021/10/29 18:28:09;;;;;;;11.98;2.53;;;12.30;99.90;;;;;;5020514;28;20101;-89
2021/10/29 18:30:37;;;;;;;13.02;2.35;;;12.20;99.90;;;;;;5029576;28;20599;-92
2021/10/29 18:33:05;;;;;;;13.32;2.58;;;12.20;99.90;;;;;;5030133;28;20517;-84
2021/10/29 18:35:32;;;;;;;;;;;12.20;99.90;;;;;;5040016;28;20056;-88
2021/10/29 18:38:00;;;;;;;12.40;2.72;;;12.20;99.90;;;;;;5033798;28;19921;-87
2021/10/29 18:40:27;;;;;;;15.32;2.30;;;12.10;99.90;;;;;;5032341;28;20042;-87
2021/10/29 18:42:54;;;;;;;13.38;2.60;;;12.10;99.90;;;;;;5031764;28;20094;-89
2021/10/29 18:45:21;;;;;;;15.25;3.35;;;12.10;99.90;;;;;;5061345;28;20045;-86
2021/10/29 18:47:50;;;;;;;;;;;12.10;99.90;;;;;;5035226;28;20508;-86
2021/10/29 18:50:18;;;;;;;12.13;2.45;;;12.00;99.90;;;;;;5040322;28;20004;-88
2021/10/29 18:52:45;;;;;;;19.00;3.00;;;12.00;99.90;;;;;;5064207;28;20048;-87
2021/10/29 18:55:12;;;;;;;12.98;2.05;;;12.00;99.90;;;;;;5051624;28;20061;-86
2021/10/29 18:57:39;;;;;;;12.80;2.30;;;12.00;99.90;;;;;;5064876;28;20041;-87
2021/10/29 19:00:06;;;;;;;13.23;2.78;;;12.00;99.90;;;;;;5038846;28;20049;-86
2021/10/29 19:02:33;;;;;;;17.05;3.22;;;12.00;99.90;;;;;;5064307;28;20041;-87
2021/10/29 19:05:01;;;;;;;14.15;2.30;;;12.00;99.90;;;;;;5050517;28;20052;-86
2021/10/29 19:07:28;;;;;;;14.40;2.30;;;12.00;99.90;;;;;;5052998;28;20623;-85
2021/10/29 19:09:55;;;;;;;10.05;2.33;;;12.00;99.90;;;;;;5042531;28;20053;-89
2021/10/29 19:12:22;;;;;;;14.63;2.47;;;12.00;99.90;;;;;;5044602;28;20055;-88
2021/10/29 19:14:49;;;;;;;9.00;2.38;;;12.00;99.90;;;;;;5034150;28;20049;-85
2021/10/29 19:17:18;;;;;;;12.65;2.22;;;12.00;99.90;;;;;;5036450;28;20525;-84
2021/10/29 19:19:45;;;;;;;11.68;2.70;;;12.10;99.90;;;;;;5054492;28;20903;-92
2021/10/29 19:22:12;;;;;;;11.50;2.20;;;12.10;99.90;;;;;;5041099;28;20041;-86
2021/10/29 19:24:39;;;;;;;14.63;2.45;;;12.10;99.90;;;;;;5030709;28;20099;-88
2021/10/29 19:27:06;;;;;;;10.35;2.30;;;12.10;99.90;;;;;;5034922;28;20095;-86
2021/10/29 19:29:34;;;;;;;17.20;2.60;;;12.20;99.90;;;;;;5039811;28;20041;-88
2021/10/29 19:32:06;;;;;;;;;;;12.20;99.90;;;;;;5049232;28;20570;-87
2021/10/29 19:34:37;;;;;;;19.70;2.67;;;12.30;99.90;;;;;;5048731;28;19925;-86
2021/10/29 19:37:29;;;;;;;11.43;2.20;;;12.30;99.90;;;;;;5031963;28;20049;-87
2021/10/29 19:40:05;;;;;;;11.65;2.30;;;12.30;99.90;;;;;;5036813;28;20674;-89
2021/10/29 19:42:32;;;;;;;10.93;2.75;;;12.40;99.90;;;;;;5061913;28;20126;-87
2021/10/29 19:44:59;;;;;;;12.27;2.33;;;12.40;99.90;;;;;;5065217;28;20468;-86
2021/10/29 19:47:26;;;;;;;8.65;2.25;;;12.50;99.90;;;;;;5042817;28;20072;-85
2021/10/29 19:49:53;;;;;;;12.18;3.03;;;12.50;99.90;;;;;;5034791;28;20091;-87
2021/10/29 19:52:22;;;;;;;14.98;3.03;;;12.60;99.90;;;;;;5026688;28;20099;-87
2021/10/29 19:54:53;;;;;;;9.43;2.40;;;12.70;99.90;;;;;;5037377;28;20053;-86
2021/10/29 19:57:36;;;;;;;10.60;1.80;;;12.70;99.90;;;;;;5030622;28;20057;-87
2021/10/29 20:00:08;;;;;;;16.15;2.10;;;12.80;99.90;;;;;;5014012;28;20050;-85
2021/10/29 20:02:35;;;;;;;9.15;1.85;;;12.80;99.90;;;;;;5016882;28;20399;-87
2021/10/29 20:05:03;;;;;;;12.48;2.17;;;12.90;99.90;;;;;;5076367;28;20072;-86
2021/10/29 20:07:30;;;;;;;11.05;2.10;;;13.00;99.90;;;;;;5038957;28;20488;-83
2021/10/29 20:09:57;;;;;;;12.57;2.08;;;13.00;99.90;;;;;;5078492;28;20095;-87
2021/10/29 20:12:26;;;;;;;11.10;1.92;;;13.10;99.90;;;;;;5046696;28;20103;-89
2021/10/29 20:14:53;;;;;;;8.98;1.95;;;13.10;99.90;;;;;;5037421;28;20045;-88
2021/10/29 20:17:22;;;;;;;11.93;1.98;;;13.20;99.90;;;;;;5048913;28;20045;-88
2021/10/29 20:19:50;;;;;;;10.45;2.40;;;13.20;99.90;;;;;;5041649;28;20083;-86
2021/10/29 20:22:18;;;;;;;13.85;2.45;;;13.20;99.90;;;;;;5071397;28;20118;-88
2021/10/29 20:24:45;;;;;;;11.60;1.70;;;13.30;99.90;;;;;;5047439;28;20151;-85
2021/10/29 20:27:12;;;;;;;9.40;1.48;;;13.30;99.90;;;;;;5044167;28;20056;-89
2021/10/29 20:29:39;;;;;;;13.15;2.22;;;13.30;99.90;;;;;;5064211;28;20048;-86
2021/10/29 20:32:08;;;;;;;10.00;1.23;;;13.30;99.90;;;;;;5041229;28;20516;-88
2021/10/29 20:34:35;;;;;;;12.73;1.75;;;13.30;99.90;;;;;;5033563;28;20044;-85
2021/10/29 20:37:02;;;;;;;9.38;1.70;;;13.30;99.90;;;;;;5043278;28;20045;-87
2021/10/29 20:39:29;;;;;;;11.07;2.20;;;13.30;99.90;;;;;;5015704;28;20112;-88
2021/10/29 20:41:56;;;;;;;12.60;1.90;;;13.30;99.90;;;;;;5033724;28;20048;-83
2021/10/29 20:44:23;;;;;;;8.95;1.95;;;13.30;99.90;;;;;;5047121;28;20864;-88
2021/10/29 20:46:50;;;;;;;7.43;1.75;;;13.30;99.90;;;;;;5048173;28;20057;-88
2021/10/29 20:49:18;;;;;;;8.98;1.60;;;13.30;99.90;;;;;;5045266;28;20494;-89
2021/10/29 20:51:46;;;;;;;8.93;1.60;;;13.30;99.90;;;;;;5043400;28;20476;-88
2021/10/29 20:54:13;;;;;;;10.20;1.55;;;13.20;99.90;;;;;;5029315;28;20045;-84
2021/10/29 20:56:40;;;;;;;7.07;1.40;;;13.20;99.90;;;;;;5041394;28;20474;-84
2021/10/29 20:59:08;;;;;;;7.72;1.95;;;13.20;99.90;;;;;;5041700;28;20119;-85
2021/10/29 21:01:35;;;;;;;7.90;1.40;;;13.20;99.90;;;;;;5044453;28;20414;-86
2021/10/29 21:04:02;;;;;;;9.25;1.30;;;13.20;99.90;;;;;;5030264;28;20491;-88
2021/10/29 21:06:31;;;;;;;12.73;1.77;;;13.20;99.90;;;;;;5043875;28;20041;-82
2021/10/29 21:08:58;;;;;;;9.32;1.60;;;13.20;99.90;;;;;;5043432;28;20049;-82
2021/10/29 21:11:26;;;;;;;12.40;2.22;;;13.20;99.90;;;;;;5045418;28;20049;-85
2021/10/29 21:13:53;;;;;;;12.70;1.90;;;13.20;99.90;;;;;;5022267;28;20475;-84
2021/10/29 21:16:20;;;;;;;6.53;1.30;;;13.20;99.90;;;;;;5031577;28;20041;-86
2021/10/29 21:18:47;;;;;;;11.80;1.55;;;13.20;99.90;;;;;;5037314;28;20063;-85
2021/10/29 21:21:14;;;;;;;13.30;1.70;;;13.10;99.90;;;;;;5038735;28;20114;-87
2021/10/29 21:23:41;;;;;;;7.90;1.88;;;13.10;99.90;;;;;;5043180;28;20405;-87
2021/10/29 21:26:08;;;;;;;12.00;1.80;;;13.10;99.90;;;;;;5049862;28;20048;-89
2021/10/29 21:28:35;;;;;;;13.25;2.33;;;13.20;99.90;;;;;;5032022;28;20962;-90
2021/10/29 21:31:22;;;;;;;12.02;1.90;;;13.20;99.90;;;;;;5040553;28;20157;-90
2021/10/29 21:33:50;;;;;;;15.07;1.48;;;13.20;99.90;;;;;;5070029;28;20058;-90
2021/10/29 21:36:23;;;;;;;10.40;1.65;;;13.20;99.90;;;;;;5029928;28;20092;-88
2021/10/29 21:38:49;;;;;;;14.60;1.88;;;13.20;99.90;;;;;;5045023;28;20049;-90
2021/10/29 21:41:16;;;;;;;14.15;2.20;;;13.20;99.90;;;;;;5042755;28;20136;-86
2021/10/29 21:43:46;;;;;;;11.65;2.13;;;13.20;99.90;;;;;;5040380;28;20045;-85
2021/10/29 21:46:13;;;;;;;10.23;1.55;;;13.30;99.90;;;;;;5050477;28;20073;-87
2021/10/29 21:48:45;;;;;;;14.00;1.67;;;13.20;99.90;;;;;;5052944;28;20048;-87
2021/10/29 21:51:17;;;;;;;11.27;1.90;;;13.30;99.90;;;;;;5032330;28;20505;-86
2021/10/29 21:53:44;;;;;;;10.88;1.60;;;13.30;99.90;;;;;;5036858;28;20049;-85
2021/10/29 21:56:11;;;;;;;11.18;1.98;;;13.30;99.90;;;;;;5076293;28;20057;-84
2021/10/29 21:58:38;;;;;;;12.55;1.83;;;13.30;99.90;;;;;;5033350;28;20110;-84
2021/10/29 22:01:05;;;;;;;10.95;1.70;;;13.30;99.90;;;;;;5024311;28;20057;-85
2021/10/29 22:03:32;;;;;;;11.35;2.15;;;13.30;99.90;;;;;;5053008;28;20047;-85
2021/10/29 22:05:59;;;;;;;15.73;2.45;;;13.40;99.90;;;;;;5034565;28;20045;-84
2021/10/29 22:08:27;;;;;;;9.63;2.43;;;13.40;99.90;;;;;;5066684;28;20044;-84
2021/10/29 22:10:54;;;;;;;10.93;2.00;;;13.40;99.90;;;;;;5067466;28;20048;-83
2021/10/29 22:13:22;;;;;;;9.48;1.85;;;13.40;99.90;;;;;;5018744;28;20131;-85
2021/10/29 22:15:48;;;;;;;11.13;1.42;;;13.40;99.90;;;;;;5035847;28;20045;-84
2021/10/29 22:18:16;;;;;;;9.00;1.85;;;13.50;99.90;;;;;;5052016;28;20075;-82
2021/10/29 22:20:45;;;;;;;10.23;1.60;;;13.50;99.90;;;;;;5051354;28;20091;-83
2021/10/29 22:23:15;;;;;;;10.05;1.67;;;13.50;99.90;;;;;;5051542;28;20452;-84
2021/10/29 22:25:51;;;;;;;9.80;1.60;;;13.50;99.90;;;;;;5053349;28;20088;-81
2021/10/29 22:28:22;;;;;;;7.50;1.90;;;13.50;99.90;;;;;;5051780;28;20095;-85
2021/10/29 22:30:54;;;;;;;9.55;1.90;;;13.60;99.90;;;;;;5034990;28;20052;-86
2021/10/29 22:33:23;;;;;;;12.75;2.10;;;13.60;99.90;;;;;;5032581;28;20045;-86
2021/10/29 22:35:51;;;;;;;10.18;2.00;;;13.60;99.90;;;;;;5031714;28;20118;-85
2021/10/29 22:38:18;;;;;;;11.02;1.83;;;13.70;99.90;;;;;;5052357;28;20041;-85
2021/10/29 22:40:45;;;;;;;13.70;1.95;;;13.60;99.90;;;;;;5052140;28;20045;-85
2021/10/29 22:43:12;;;;;;;14.20;1.77;;;13.70;99.90;;;;;;5052156;28;20110;-87
2021/10/29 22:45:39;;;;;;;9.95;1.45;;;13.70;99.90;;;;;;5035571;28;20045;-86
2021/10/29 22:48:06;;;;;;;11.90;1.90;;;13.70;99.90;;;;;;5034394;28;20175;-85
2021/10/29 22:50:33;;;;;;;9.00;1.75;;;13.70;99.90;;;;;;5052300;28;20037;-83
2021/10/29 22:52:59;;;;;;;9.95;1.65;;;13.70;99.90;;;;;;5051569;28;20570;-84
2021/10/29 22:55:27;;;;;;;9.75;1.48;;;13.70;99.90;;;;;;5051409;28;20041;-86
2021/10/29 22:57:55;;;;;;;11.15;1.50;;;13.70;99.90;;;;;;5052112;28;20052;-85
